sensor_id;sensor_type;location;lat;lon;timestamp;P1;durP1;ratioP1;P2;durP2;ratioP2
3189;SDS011;1606;51.946;10.558;2023-04-15T00:01:52;9.20;;;4.60;;
3189;SDS011;1606;51.946;10.558;2023-04-15T00:04:20;8.40;;;4.20;;
3189;SDS011;1606;51.946;10.558;2023-04-15T00:06:49;9.23;;;4.77;;
3189;SDS011;1606;51.946;10.558;2023-04-15T00:09:18;9.47;;;4.90;;
3189;SDS011;1606;51.946;10.558;2023-04-15T00:11:46;9.97;;;5.30;;
3189;SDS011;1606;51.946;10.558;2023-04-15T00:14:15;10.03;;;4.90;;
3189;SDS011;1606;51.946;10.558;2023-04-15T00:16:43;10.17;;;5.13;;
3189;SDS011;1606;51.946;10.558;2023-04-15T00:19:10;9.50;;;4.83;;
3189;SDS011;1606;51.946;10.558;2023-04-15T00:21:38;11.47;;;4.30;;
3189;SDS011;1606;51.946;10.558;2023-04-15T00:24:06;9.93;;;5.27;;
3189;SDS011;1606;51.946;10.558;2023-04-15T00:26:34;16.03;;;5.97;;
3189;SDS011;1606;51.946;10.558;2023-04-15T00:29:01;9.50;;;5.30;;
3189;SDS011;1606;51.946;10.558;2023-04-15T00:31:31;12.10;;;6.07;;
3189;SDS011;1606;51.946;10.558;2023-04-15T00:33:59;10.37;;;5.80;;
3189;SDS011;1606;51.946;10.558;2023-04-15T00:36:27;11.30;;;5.50;;
3189;SDS011;1606;51.946;10.558;2023-04-15T00:38:55;12.77;;;6.10;;
3189;SDS011;1606;51.946;10.558;2023-04-15T00:41:23;11.70;;;5.90;;
3189;SDS011;1606;51.946;10.558;2023-04-15T00:43:51;11.00;;;6.30;;
3189;SDS011;1606;51.946;10.558;2023-04-15T00:46:19;10.50;;;5.73;;
3189;SDS011;1606;51.946;10.558;2023-04-15T00:48:50;11.03;;;6.50;;
3189;SDS011;1606;51.946;10.558;2023-04-15T00:51:17;10.60;;;5.60;;
3189;SDS011;1606;51.946;10.558;2023-04-15T00:53:45;10.70;;;6.17;;
3189;SDS011;1606;51.946;10.558;2023-04-15T00:56:13;11.10;;;5.87;;
3189;SDS011;1606;51.946;10.558;2023-04-15T00:58:41;10.30;;;5.67;;
3189;SDS011;1606;51.946;10.558;2023-04-15T01:01:09;10.50;;;5.83;;
3189;SDS011;1606;51.946;10.558;2023-04-15T01:03:36;11.13;;;5.43;;
3189;SDS011;1606;51.946;10.558;2023-04-15T01:06:06;10.80;;;6.07;;
3189;SDS011;1606;51.946;10.558;2023-04-15T01:08:34;9.47;;;5.50;;
3189;SDS011;1606;51.946;10.558;2023-04-15T01:11:02;10.70;;;6.07;;
3189;SDS011;1606;51.946;10.558;2023-04-15T01:13:30;11.40;;;6.20;;
3189;SDS011;1606;51.946;10.558;2023-04-15T01:16:00;12.00;;;6.80;;
3189;SDS011;1606;51.946;10.558;2023-04-15T01:18:28;10.63;;;6.57;;
3189;SDS011;1606;51.946;10.558;2023-04-15T01:20:56;13.07;;;6.30;;
3189;SDS011;1606;51.946;10.558;2023-04-15T01:23:28;12.37;;;6.97;;
3189;SDS011;1606;51.946;10.558;2023-04-15T01:25:57;11.30;;;5.90;;
3189;SDS011;1606;51.946;10.558;2023-04-15T01:28:25;10.87;;;5.47;;
3189;SDS011;1606;51.946;10.558;2023-04-15T01:31:03;14.23;;;6.30;;
3189;SDS011;1606;51.946;10.558;2023-04-15T01:33:33;10.90;;;6.10;;
3189;SDS011;1606;51.946;10.558;2023-04-15T01:36:01;10.00;;;5.13;;
3189;SDS011;1606;51.946;10.558;2023-04-15T01:38:30;12.17;;;6.30;;
3189;SDS011;1606;51.946;10.558;2023-04-15T01:41:00;11.03;;;5.97;;
3189;SDS011;1606;51.946;10.558;2023-04-15T01:43:29;10.67;;;6.53;;
3189;SDS011;1606;51.946;10.558;2023-04-15T01:45:57;10.43;;;5.80;;
3189;SDS011;1606;51.946;10.558;2023-04-15T01:48:25;10.93;;;5.77;;
3189;SDS011;1606;51.946;10.558;2023-04-15T01:50:53;11.87;;;7.30;;
3189;SDS011;1606;51.946;10.558;2023-04-15T01:53:22;10.60;;;6.27;;
3189;SDS011;1606;51.946;10.558;2023-04-15T01:55:51;11.70;;;6.50;;
3189;SDS011;1606;51.946;10.558;2023-04-15T01:58:20;10.93;;;5.50;;
3189;SDS011;1606;51.946;10.558;2023-04-15T02:00:48;11.53;;;6.87;;
3189;SDS011;1606;51.946;10.558;2023-04-15T02:03:16;10.60;;;6.07;;
3189;SDS011;1606;51.946;10.558;2023-04-15T02:05:44;10.30;;;5.57;;
3189;SDS011;1606;51.946;10.558;2023-04-15T02:08:11;11.17;;;6.60;;
3189;SDS011;1606;51.946;10.558;2023-04-15T02:10:39;11.50;;;6.77;;
3189;SDS011;1606;51.946;10.558;2023-04-15T02:13:07;11.50;;;6.97;;
3189;SDS011;1606;51.946;10.558;2023-04-15T02:15:37;12.37;;;7.10;;
3189;SDS011;1606;51.946;10.558;2023-04-15T02:18:05;15.60;;;7.27;;
3189;SDS011;1606;51.946;10.558;2023-04-15T02:20:32;14.70;;;7.33;;
3189;SDS011;1606;51.946;10.558;2023-04-15T02:23:01;14.87;;;8.73;;
3189;SDS011;1606;51.946;10.558;2023-04-15T02:25:32;14.43;;;7.60;;
3189;SDS011;1606;51.946;10.558;2023-04-15T02:28:00;13.93;;;7.40;;
3189;SDS011;1606;51.946;10.558;2023-04-15T02:30:27;13.10;;;8.13;;
3189;SDS011;1606;51.946;10.558;2023-04-15T02:32:56;12.13;;;7.00;;
3189;SDS011;1606;51.946;10.558;2023-04-15T02:35:24;12.70;;;7.33;;
3189;SDS011;1606;51.946;10.558;2023-04-15T02:37:52;13.70;;;8.20;;
3189;SDS011;1606;51.946;10.558;2023-04-15T02:40:20;14.00;;;8.10;;
3189;SDS011;1606;51.946;10.558;2023-04-15T02:42:48;14.10;;;7.87;;
3189;SDS011;1606;51.946;10.558;2023-04-15T02:45:16;13.90;;;8.60;;
3189;SDS011;1606;51.946;10.558;2023-04-15T02:47:48;18.43;;;10.50;;
3189;SDS011;1606;51.946;10.558;2023-04-15T02:50:18;13.30;;;8.43;;
3189;SDS011;1606;51.946;10.558;2023-04-15T02:52:46;15.17;;;8.60;;
3189;SDS011;1606;51.946;10.558;2023-04-15T02:55:13;14.17;;;8.10;;
3189;SDS011;1606;51.946;10.558;2023-04-15T02:57:43;15.27;;;8.90;;
3189;SDS011;1606;51.946;10.558;2023-04-15T03:00:11;16.47;;;10.13;;
3189;SDS011;1606;51.946;10.558;2023-04-15T03:02:39;16.80;;;9.60;;
3189;SDS011;1606;51.946;10.558;2023-04-15T03:05:10;16.63;;;8.10;;
3189;SDS011;1606;51.946;10.558;2023-04-15T03:07:40;19.23;;;11.37;;
3189;SDS011;1606;51.946;10.558;2023-04-15T03:10:08;17.03;;;10.47;;
3189;SDS011;1606;51.946;10.558;2023-04-15T03:12:36;20.50;;;11.03;;
3189;SDS011;1606;51.946;10.558;2023-04-15T03:15:05;22.80;;;14.50;;
3189;SDS011;1606;51.946;10.558;2023-04-15T03:17:33;23.00;;;13.13;;
3189;SDS011;1606;51.946;10.558;2023-04-15T03:20:01;25.73;;;14.37;;
3189;SDS011;1606;51.946;10.558;2023-04-15T03:22:30;27.50;;;14.97;;
3189;SDS011;1606;51.946;10.558;2023-04-15T03:24:59;26.40;;;15.00;;
3189;SDS011;1606;51.946;10.558;2023-04-15T03:27:27;24.87;;;14.57;;
3189;SDS011;1606;51.946;10.558;2023-04-15T03:29:54;27.33;;;14.67;;
3189;SDS011;1606;51.946;10.558;2023-04-15T03:32:22;23.03;;;13.50;;
3189;SDS011;1606;51.946;10.558;2023-04-15T03:34:50;22.87;;;12.70;;
3189;SDS011;1606;51.946;10.558;2023-04-15T03:37:18;18.37;;;11.40;;
3189;SDS011;1606;51.946;10.558;2023-04-15T03:39:46;21.90;;;11.17;;
3189;SDS011;1606;51.946;10.558;2023-04-15T03:42:15;20.07;;;10.77;;
3189;SDS011;1606;51.946;10.558;2023-04-15T03:44:43;18.60;;;10.57;;
3189;SDS011;1606;51.946;10.558;2023-04-15T03:47:11;19.95;;;11.90;;
3189;SDS011;1606;51.946;10.558;2023-04-15T03:49:39;19.17;;;11.43;;
3189;SDS011;1606;51.946;10.558;2023-04-15T03:52:07;21.43;;;12.17;;
3189;SDS011;1606;51.946;10.558;2023-04-15T03:54:34;18.17;;;10.77;;
3189;SDS011;1606;51.946;10.558;2023-04-15T03:57:02;20.13;;;11.60;;
3189;SDS011;1606;51.946;10.558;2023-04-15T03:59:31;17.60;;;10.50;;
3189;SDS011;1606;51.946;10.558;2023-04-15T04:01:59;19.90;;;11.03;;
3189;SDS011;1606;51.946;10.558;2023-04-15T04:04:27;16.13;;;9.83;;
3189;SDS011;1606;51.946;10.558;2023-04-15T04:06:54;18.37;;;10.57;;
3189;SDS011;1606;51.946;10.558;2023-04-15T04:09:22;17.90;;;10.20;;
3189;SDS011;1606;51.946;10.558;2023-04-15T04:11:50;15.97;;;9.10;;
3189;SDS011;1606;51.946;10.558;2023-04-15T04:14:18;16.30;;;9.57;;
3189;SDS011;1606;51.946;10.558;2023-04-15T04:16:47;19.87;;;10.90;;
3189;SDS011;1606;51.946;10.558;2023-04-15T04:19:15;15.37;;;8.67;;
3189;SDS011;1606;51.946;10.558;2023-04-15T04:21:45;15.90;;;9.33;;
3189;SDS011;1606;51.946;10.558;2023-04-15T04:24:12;16.50;;;9.90;;
3189;SDS011;1606;51.946;10.558;2023-04-15T04:26:40;16.40;;;8.80;;
3189;SDS011;1606;51.946;10.558;2023-04-15T04:29:08;15.30;;;8.93;;
3189;SDS011;1606;51.946;10.558;2023-04-15T04:31:36;14.80;;;9.03;;
3189;SDS011;1606;51.946;10.558;2023-04-15T04:34:05;17.53;;;8.30;;
3189;SDS011;1606;51.946;10.558;2023-04-15T04:36:33;17.13;;;8.37;;
3189;SDS011;1606;51.946;10.558;2023-04-15T04:39:00;17.33;;;9.00;;
3189;SDS011;1606;51.946;10.558;2023-04-15T04:41:29;17.17;;;8.93;;
3189;SDS011;1606;51.946;10.558;2023-04-15T04:43:57;17.13;;;8.47;;
3189;SDS011;1606;51.946;10.558;2023-04-15T04:46:25;17.53;;;8.10;;
3189;SDS011;1606;51.946;10.558;2023-04-15T04:48:52;13.97;;;7.47;;
3189;SDS011;1606;51.946;10.558;2023-04-15T04:51:22;15.87;;;9.60;;
3189;SDS011;1606;51.946;10.558;2023-04-15T04:53:49;19.77;;;8.30;;
3189;SDS011;1606;51.946;10.558;2023-04-15T04:56:17;16.83;;;9.03;;
3189;SDS011;1606;51.946;10.558;2023-04-15T04:58:45;15.33;;;8.30;;
3189;SDS011;1606;51.946;10.558;2023-04-15T05:01:12;15.87;;;8.53;;
3189;SDS011;1606;51.946;10.558;2023-04-15T05:03:40;14.90;;;8.47;;
3189;SDS011;1606;51.946;10.558;2023-04-15T05:06:08;15.17;;;8.60;;
3189;SDS011;1606;51.946;10.558;2023-04-15T05:08:37;15.83;;;8.17;;
3189;SDS011;1606;51.946;10.558;2023-04-15T05:11:06;18.03;;;10.40;;
3189;SDS011;1606;51.946;10.558;2023-04-15T05:13:34;16.43;;;9.17;;
3189;SDS011;1606;51.946;10.558;2023-04-15T05:16:04;16.13;;;7.93;;
3189;SDS011;1606;51.946;10.558;2023-04-15T05:18:32;14.63;;;8.43;;
3189;SDS011;1606;51.946;10.558;2023-04-15T05:21:00;17.00;;;8.33;;
3189;SDS011;1606;51.946;10.558;2023-04-15T05:23:28;14.20;;;7.10;;
3189;SDS011;1606;51.946;10.558;2023-04-15T05:25:58;15.00;;;8.00;;
3189;SDS011;1606;51.946;10.558;2023-04-15T05:28:25;14.30;;;6.90;;
3189;SDS011;1606;51.946;10.558;2023-04-15T05:30:53;13.27;;;6.87;;
3189;SDS011;1606;51.946;10.558;2023-04-15T05:33:21;14.10;;;7.40;;
3189;SDS011;1606;51.946;10.558;2023-04-15T05:35:49;12.50;;;6.33;;
3189;SDS011;1606;51.946;10.558;2023-04-15T05:38:17;12.63;;;6.30;;
3189;SDS011;1606;51.946;10.558;2023-04-15T05:40:44;11.03;;;5.60;;
3189;SDS011;1606;51.946;10.558;2023-04-15T05:43:13;14.10;;;6.27;;
3189;SDS011;1606;51.946;10.558;2023-04-15T05:45:41;12.87;;;6.43;;
3189;SDS011;1606;51.946;10.558;2023-04-15T05:48:09;13.18;;;6.88;;
3189;SDS011;1606;51.946;10.558;2023-04-15T05:50:39;14.33;;;6.47;;
3189;SDS011;1606;51.946;10.558;2023-04-15T05:53:07;13.70;;;7.10;;
3189;SDS011;1606;51.946;10.558;2023-04-15T05:55:34;11.87;;;6.10;;
3189;SDS011;1606;51.946;10.558;2023-04-15T05:58:02;12.97;;;6.13;;
3189;SDS011;1606;51.946;10.558;2023-04-15T06:00:31;17.67;;;6.63;;
3189;SDS011;1606;51.946;10.558;2023-04-15T06:02:59;13.80;;;7.60;;
3189;SDS011;1606;51.946;10.558;2023-04-15T06:05:27;13.80;;;7.40;;
3189;SDS011;1606;51.946;10.558;2023-04-15T06:07:55;13.53;;;7.10;;
3189;SDS011;1606;51.946;10.558;2023-04-15T06:10:23;18.40;;;9.20;;
3189;SDS011;1606;51.946;10.558;2023-04-15T06:12:51;14.80;;;8.40;;
3189;SDS011;1606;51.946;10.558;2023-04-15T06:15:19;14.17;;;7.93;;
3189;SDS011;1606;51.946;10.558;2023-04-15T06:17:48;15.77;;;8.47;;
3189;SDS011;1606;51.946;10.558;2023-04-15T06:20:16;16.47;;;9.20;;
3189;SDS011;1606;51.946;10.558;2023-04-15T06:22:44;17.40;;;8.97;;
3189;SDS011;1606;51.946;10.558;2023-04-15T06:25:12;17.93;;;10.03;;
3189;SDS011;1606;51.946;10.558;2023-04-15T06:27:40;18.70;;;11.70;;
3189;SDS011;1606;51.946;10.558;2023-04-15T06:30:08;17.13;;;9.33;;
3189;SDS011;1606;51.946;10.558;2023-04-15T06:32:37;18.20;;;10.63;;
3189;SDS011;1606;51.946;10.558;2023-04-15T06:35:06;17.47;;;9.57;;
3189;SDS011;1606;51.946;10.558;2023-04-15T06:37:34;17.70;;;9.93;;
3189;SDS011;1606;51.946;10.558;2023-04-15T06:40:02;17.90;;;11.67;;
3189;SDS011;1606;51.946;10.558;2023-04-15T06:42:30;18.60;;;10.83;;
3189;SDS011;1606;51.946;10.558;2023-04-15T06:44:59;17.70;;;9.90;;
3189;SDS011;1606;51.946;10.558;2023-04-15T06:47:27;19.15;;;10.57;;
3189;SDS011;1606;51.946;10.558;2023-04-15T06:49:54;16.20;;;9.67;;
3189;SDS011;1606;51.946;10.558;2023-04-15T06:52:24;15.57;;;10.33;;
3189;SDS011;1606;51.946;10.558;2023-04-15T06:54:51;16.90;;;10.10;;
3189;SDS011;1606;51.946;10.558;2023-04-15T06:57:19;18.20;;;10.20;;
3189;SDS011;1606;51.946;10.558;2023-04-15T06:59:47;17.83;;;8.73;;
3189;SDS011;1606;51.946;10.558;2023-04-15T07:02:14;15.97;;;8.90;;
3189;SDS011;1606;51.946;10.558;2023-04-15T07:04:43;17.70;;;10.63;;
3189;SDS011;1606;51.946;10.558;2023-04-15T07:07:11;18.03;;;9.70;;
3189;SDS011;1606;51.946;10.558;2023-04-15T07:09:41;17.13;;;10.20;;
3189;SDS011;1606;51.946;10.558;2023-04-15T07:12:09;18.67;;;11.00;;
3189;SDS011;1606;51.946;10.558;2023-04-15T07:14:37;19.70;;;11.93;;
3189;SDS011;1606;51.946;10.558;2023-04-15T07:17:05;20.60;;;12.40;;
3189;SDS011;1606;51.946;10.558;2023-04-15T07:19:33;21.30;;;12.43;;
3189;SDS011;1606;51.946;10.558;2023-04-15T07:22:00;21.50;;;12.60;;
3189;SDS011;1606;51.946;10.558;2023-04-15T07:24:28;21.60;;;13.70;;
3189;SDS011;1606;51.946;10.558;2023-04-15T07:26:58;25.83;;;13.17;;
3189;SDS011;1606;51.946;10.558;2023-04-15T07:29:26;21.70;;;12.63;;
3189;SDS011;1606;51.946;10.558;2023-04-15T07:31:54;19.30;;;12.70;;
3189;SDS011;1606;51.946;10.558;2023-04-15T07:34:22;20.93;;;13.13;;
3189;SDS011;1606;51.946;10.558;2023-04-15T07:36:50;22.10;;;13.70;;
3189;SDS011;1606;51.946;10.558;2023-04-15T07:39:18;19.10;;;12.20;;
3189;SDS011;1606;51.946;10.558;2023-04-15T07:41:46;20.13;;;12.57;;
3189;SDS011;1606;51.946;10.558;2023-04-15T07:44:15;23.03;;;14.10;;
3189;SDS011;1606;51.946;10.558;2023-04-15T07:46:43;20.63;;;13.50;;
3189;SDS011;1606;51.946;10.558;2023-04-15T07:49:11;23.40;;;14.85;;
3189;SDS011;1606;51.946;10.558;2023-04-15T07:51:39;22.37;;;14.00;;
3189;SDS011;1606;51.946;10.558;2023-04-15T07:54:07;21.73;;;13.67;;
3189;SDS011;1606;51.946;10.558;2023-04-15T07:56:35;21.27;;;14.40;;
3189;SDS011;1606;51.946;10.558;2023-04-15T07:59:02;19.80;;;12.27;;
3189;SDS011;1606;51.946;10.558;2023-04-15T08:01:33;15.73;;;11.20;;
3189;SDS011;1606;51.946;10.558;2023-04-15T08:04:01;18.37;;;11.40;;
3189;SDS011;1606;51.946;10.558;2023-04-15T08:06:29;18.30;;;11.30;;
3189;SDS011;1606;51.946;10.558;2023-04-15T08:08:58;17.43;;;10.30;;
3189;SDS011;1606;51.946;10.558;2023-04-15T08:11:26;17.40;;;10.30;;
3189;SDS011;1606;51.946;10.558;2023-04-15T08:13:54;19.90;;;10.60;;
3189;SDS011;1606;51.946;10.558;2023-04-15T08:16:22;17.80;;;10.83;;
3189;SDS011;1606;51.946;10.558;2023-04-15T08:18:55;15.43;;;9.63;;
3189;SDS011;1606;51.946;10.558;2023-04-15T08:21:25;16.73;;;10.17;;
3189;SDS011;1606;51.946;10.558;2023-04-15T08:23:53;17.80;;;10.70;;
3189;SDS011;1606;51.946;10.558;2023-04-15T08:26:21;17.37;;;10.07;;
3189;SDS011;1606;51.946;10.558;2023-04-15T08:28:49;17.90;;;10.87;;
3189;SDS011;1606;51.946;10.558;2023-04-15T08:31:17;16.87;;;9.83;;
3189;SDS011;1606;51.946;10.558;2023-04-15T08:33:46;16.60;;;10.30;;
3189;SDS011;1606;51.946;10.558;2023-04-15T08:36:15;17.93;;;10.50;;
3189;SDS011;1606;51.946;10.558;2023-04-15T08:38:44;21.10;;;13.10;;
3189;SDS011;1606;51.946;10.558;2023-04-15T08:41:20;21.57;;;14.20;;
3189;SDS011;1606;51.946;10.558;2023-04-15T08:43:53;16.40;;;10.13;;
3189;SDS011;1606;51.946;10.558;2023-04-15T08:46:23;19.90;;;11.80;;
3189;SDS011;1606;51.946;10.558;2023-04-15T08:48:52;20.77;;;13.27;;
3189;SDS011;1606;51.946;10.558;2023-04-15T08:51:24;17.30;;;10.83;;
3189;SDS011;1606;51.946;10.558;2023-04-15T08:53:53;15.50;;;9.70;;
3189;SDS011;1606;51.946;10.558;2023-04-15T08:56:23;17.03;;;10.67;;
3189;SDS011;1606;51.946;10.558;2023-04-15T08:58:51;17.00;;;10.33;;
3189;SDS011;1606;51.946;10.558;2023-04-15T09:01:19;17.17;;;10.20;;
3189;SDS011;1606;51.946;10.558;2023-04-15T09:03:47;14.87;;;9.53;;
3189;SDS011;1606;51.946;10.558;2023-04-15T09:06:16;19.27;;;11.97;;
3189;SDS011;1606;51.946;10.558;2023-04-15T09:08:46;14.57;;;9.27;;
3189;SDS011;1606;51.946;10.558;2023-04-15T09:11:14;16.00;;;8.67;;
3189;SDS011;1606;51.946;10.558;2023-04-15T09:13:45;15.70;;;9.80;;
3189;SDS011;1606;51.946;10.558;2023-04-15T09:16:13;16.30;;;9.70;;
3189;SDS011;1606;51.946;10.558;2023-04-15T09:18:41;17.27;;;10.37;;
3189;SDS011;1606;51.946;10.558;2023-04-15T09:21:10;18.47;;;12.13;;
3189;SDS011;1606;51.946;10.558;2023-04-15T09:23:39;19.10;;;10.07;;
3189;SDS011;1606;51.946;10.558;2023-04-15T09:26:09;17.97;;;11.27;;
3189;SDS011;1606;51.946;10.558;2023-04-15T09:28:40;21.07;;;14.60;;
3189;SDS011;1606;51.946;10.558;2023-04-15T09:31:08;17.37;;;11.20;;
3189;SDS011;1606;51.946;10.558;2023-04-15T09:33:52;21.83;;;12.00;;
3189;SDS011;1606;51.946;10.558;2023-04-15T09:36:21;18.70;;;11.00;;
3189;SDS011;1606;51.946;10.558;2023-04-15T09:38:53;19.30;;;12.30;;
3189;SDS011;1606;51.946;10.558;2023-04-15T09:41:24;24.90;;;16.77;;
3189;SDS011;1606;51.946;10.558;2023-04-15T09:43:52;21.53;;;12.93;;
3189;SDS011;1606;51.946;10.558;2023-04-15T09:46:20;19.40;;;12.27;;
3189;SDS011;1606;51.946;10.558;2023-04-15T09:49:07;19.17;;;13.30;;
3189;SDS011;1606;51.946;10.558;2023-04-15T09:51:36;18.38;;;11.90;;
3189;SDS011;1606;51.946;10.558;2023-04-15T09:54:04;19.53;;;12.30;;
3189;SDS011;1606;51.946;10.558;2023-04-15T09:56:35;20.73;;;13.80;;
3189;SDS011;1606;51.946;10.558;2023-04-15T09:59:03;18.73;;;12.23;;
3189;SDS011;1606;51.946;10.558;2023-04-15T10:01:32;20.80;;;12.43;;
3189;SDS011;1606;51.946;10.558;2023-04-15T10:04:01;22.53;;;12.00;;
3189;SDS011;1606;51.946;10.558;2023-04-15T10:06:31;21.60;;;13.80;;
3189;SDS011;1606;51.946;10.558;2023-04-15T10:08:59;21.17;;;13.53;;
3189;SDS011;1606;51.946;10.558;2023-04-15T10:11:29;21.50;;;13.93;;
3189;SDS011;1606;51.946;10.558;2023-04-15T10:13:59;26.63;;;15.30;;
3189;SDS011;1606;51.946;10.558;2023-04-15T10:16:28;22.57;;;13.40;;
3189;SDS011;1606;51.946;10.558;2023-04-15T10:19:00;24.07;;;15.10;;
3189;SDS011;1606;51.946;10.558;2023-04-15T10:21:29;23.47;;;13.57;;
3189;SDS011;1606;51.946;10.558;2023-04-15T10:23:57;24.73;;;13.73;;
3189;SDS011;1606;51.946;10.558;2023-04-15T10:26:27;21.73;;;13.30;;
3189;SDS011;1606;51.946;10.558;2023-04-15T10:28:56;26.47;;;14.67;;
3189;SDS011;1606;51.946;10.558;2023-04-15T10:31:26;27.57;;;17.17;;
3189;SDS011;1606;51.946;10.558;2023-04-15T10:33:55;30.00;;;16.10;;
3189;SDS011;1606;51.946;10.558;2023-04-15T10:36:24;32.47;;;17.63;;
3189;SDS011;1606;51.946;10.558;2023-04-15T10:38:52;30.27;;;17.40;;
3189;SDS011;1606;51.946;10.558;2023-04-15T10:41:20;32.83;;;19.17;;
3189;SDS011;1606;51.946;10.558;2023-04-15T10:43:51;29.37;;;18.60;;
3189;SDS011;1606;51.946;10.558;2023-04-15T10:46:21;32.10;;;17.87;;
3189;SDS011;1606;51.946;10.558;2023-04-15T10:48:52;39.57;;;22.17;;
3189;SDS011;1606;51.946;10.558;2023-04-15T10:51:27;32.17;;;19.90;;
3189;SDS011;1606;51.946;10.558;2023-04-15T10:53:56;32.80;;;20.10;;
3189;SDS011;1606;51.946;10.558;2023-04-15T10:56:27;35.53;;;21.37;;
3189;SDS011;1606;51.946;10.558;2023-04-15T10:58:57;30.00;;;18.57;;
3189;SDS011;1606;51.946;10.558;2023-04-15T11:07:38;36.20;;;21.07;;
3189;SDS011;1606;51.946;10.558;2023-04-15T11:13:27;46.13;;;23.57;;
3189;SDS011;1606;51.946;10.558;2023-04-15T11:15:57;50.67;;;26.60;;
3189;SDS011;1606;51.946;10.558;2023-04-15T11:18:28;41.10;;;24.20;;
3189;SDS011;1606;51.946;10.558;2023-04-15T11:21:00;45.50;;;25.77;;
3189;SDS011;1606;51.946;10.558;2023-04-15T11:23:31;44.07;;;25.63;;
3189;SDS011;1606;51.946;10.558;2023-04-15T11:26:01;46.20;;;27.17;;
3189;SDS011;1606;51.946;10.558;2023-04-15T11:28:31;52.97;;;28.43;;
3189;SDS011;1606;51.946;10.558;2023-04-15T11:31:04;52.27;;;28.43;;
3189;SDS011;1606;51.946;10.558;2023-04-15T11:33:33;47.47;;;28.33;;
3189;SDS011;1606;51.946;10.558;2023-04-15T11:36:02;46.80;;;28.00;;
3189;SDS011;1606;51.946;10.558;2023-04-15T11:38:30;53.10;;;28.20;;
3189;SDS011;1606;51.946;10.558;2023-04-15T11:41:00;58.53;;;29.93;;
3189;SDS011;1606;51.946;10.558;2023-04-15T11:43:27;54.67;;;31.30;;
3189;SDS011;1606;51.946;10.558;2023-04-15T11:46:01;50.43;;;29.40;;
3189;SDS011;1606;51.946;10.558;2023-04-15T11:48:30;48.33;;;27.23;;
3189;SDS011;1606;51.946;10.558;2023-04-15T11:50:59;51.67;;;26.70;;
3189;SDS011;1606;51.946;10.558;2023-04-15T11:53:39;51.80;;;31.65;;
3189;SDS011;1606;51.946;10.558;2023-04-15T11:56:09;37.30;;;22.87;;
3189;SDS011;1606;51.946;10.558;2023-04-15T11:58:37;37.80;;;21.90;;
3189;SDS011;1606;51.946;10.558;2023-04-15T12:01:06;33.50;;;19.20;;
3189;SDS011;1606;51.946;10.558;2023-04-15T12:03:37;40.63;;;18.80;;
3189;SDS011;1606;51.946;10.558;2023-04-15T12:06:11;33.30;;;18.20;;
3189;SDS011;1606;51.946;10.558;2023-04-15T12:11:36;32.93;;;18.33;;
3189;SDS011;1606;51.946;10.558;2023-04-15T12:14:07;31.83;;;16.77;;
3189;SDS011;1606;51.946;10.558;2023-04-15T12:16:39;31.37;;;18.87;;
3189;SDS011;1606;51.946;10.558;2023-04-15T12:19:15;31.50;;;18.47;;
3189;SDS011;1606;51.946;10.558;2023-04-15T12:21:47;32.40;;;19.10;;
3189;SDS011;1606;51.946;10.558;2023-04-15T12:24:19;37.40;;;19.77;;
3189;SDS011;1606;51.946;10.558;2023-04-15T12:26:49;37.60;;;21.60;;
3189;SDS011;1606;51.946;10.558;2023-04-15T12:29:18;36.20;;;21.90;;
3189;SDS011;1606;51.946;10.558;2023-04-15T12:31:48;33.00;;;18.43;;
3189;SDS011;1606;51.946;10.558;2023-04-15T12:34:18;36.73;;;21.33;;
3189;SDS011;1606;51.946;10.558;2023-04-15T12:36:53;38.20;;;22.30;;
3189;SDS011;1606;51.946;10.558;2023-04-15T12:39:25;38.20;;;22.60;;
3189;SDS011;1606;51.946;10.558;2023-04-15T12:41:55;32.50;;;19.63;;
3189;SDS011;1606;51.946;10.558;2023-04-15T12:44:24;41.63;;;22.53;;
3189;SDS011;1606;51.946;10.558;2023-04-15T12:46:53;39.50;;;22.10;;
3189;SDS011;1606;51.946;10.558;2023-04-15T12:49:21;39.73;;;22.70;;
3189;SDS011;1606;51.946;10.558;2023-04-15T12:51:51;41.07;;;21.90;;
3189;SDS011;1606;51.946;10.558;2023-04-15T12:54:20;40.20;;;21.90;;
3189;SDS011;1606;51.946;10.558;2023-04-15T12:56:49;39.60;;;21.80;;
3189;SDS011;1606;51.946;10.558;2023-04-15T12:59:18;38.67;;;20.83;;
3189;SDS011;1606;51.946;10.558;2023-04-15T13:01:46;42.73;;;23.53;;
3189;SDS011;1606;51.946;10.558;2023-04-15T13:04:15;37.40;;;21.50;;
3189;SDS011;1606;51.946;10.558;2023-04-15T13:06:43;41.63;;;21.63;;
3189;SDS011;1606;51.946;10.558;2023-04-15T13:09:11;38.47;;;21.07;;
3189;SDS011;1606;51.946;10.558;2023-04-15T13:11:39;42.97;;;23.90;;
3189;SDS011;1606;51.946;10.558;2023-04-15T13:14:08;43.77;;;22.20;;
3189;SDS011;1606;51.946;10.558;2023-04-15T13:16:38;43.90;;;23.30;;
3189;SDS011;1606;51.946;10.558;2023-04-15T13:19:06;42.40;;;23.17;;
3189;SDS011;1606;51.946;10.558;2023-04-15T13:21:34;38.57;;;22.53;;
3189;SDS011;1606;51.946;10.558;2023-04-15T13:24:02;42.73;;;21.50;;
3189;SDS011;1606;51.946;10.558;2023-04-15T13:26:32;44.43;;;24.37;;
3189;SDS011;1606;51.946;10.558;2023-04-15T13:29:00;46.50;;;22.60;;
3189;SDS011;1606;51.946;10.558;2023-04-15T13:31:29;42.37;;;23.27;;
3189;SDS011;1606;51.946;10.558;2023-04-15T13:33:57;38.97;;;21.80;;
3189;SDS011;1606;51.946;10.558;2023-04-15T13:36:24;43.73;;;22.90;;
3189;SDS011;1606;51.946;10.558;2023-04-15T13:38:52;43.83;;;25.47;;
3189;SDS011;1606;51.946;10.558;2023-04-15T13:41:20;50.37;;;26.13;;
3189;SDS011;1606;51.946;10.558;2023-04-15T13:43:48;47.17;;;24.87;;
3189;SDS011;1606;51.946;10.558;2023-04-15T13:46:16;40.07;;;23.70;;
3189;SDS011;1606;51.946;10.558;2023-04-15T13:48:45;54.30;;;25.70;;
3189;SDS011;1606;51.946;10.558;2023-04-15T13:51:13;46.73;;;23.67;;
3189;SDS011;1606;51.946;10.558;2023-04-15T13:53:41;44.10;;;24.10;;
3189;SDS011;1606;51.946;10.558;2023-04-15T13:56:09;53.15;;;29.45;;
3189;SDS011;1606;51.946;10.558;2023-04-15T13:58:37;47.47;;;27.83;;
3189;SDS011;1606;51.946;10.558;2023-04-15T14:01:06;53.40;;;26.13;;
3189;SDS011;1606;51.946;10.558;2023-04-15T14:03:34;45.00;;;24.40;;
3189;SDS011;1606;51.946;10.558;2023-04-15T14:06:04;45.47;;;24.53;;
3189;SDS011;1606;51.946;10.558;2023-04-15T14:08:32;41.97;;;22.13;;
3189;SDS011;1606;51.946;10.558;2023-04-15T14:11:00;44.30;;;24.93;;
3189;SDS011;1606;51.946;10.558;2023-04-15T14:13:28;45.00;;;23.77;;
3189;SDS011;1606;51.946;10.558;2023-04-15T14:15:56;45.80;;;24.43;;
3189;SDS011;1606;51.946;10.558;2023-04-15T14:18:24;47.27;;;26.90;;
3189;SDS011;1606;51.946;10.558;2023-04-15T14:20:52;43.70;;;24.70;;
3189;SDS011;1606;51.946;10.558;2023-04-15T14:23:21;48.00;;;25.90;;
3189;SDS011;1606;51.946;10.558;2023-04-15T14:25:49;48.13;;;27.00;;
3189;SDS011;1606;51.946;10.558;2023-04-15T14:28:17;42.27;;;25.07;;
3189;SDS011;1606;51.946;10.558;2023-04-15T14:30:45;50.97;;;26.77;;
3189;SDS011;1606;51.946;10.558;2023-04-15T14:33:13;39.70;;;23.27;;
3189;SDS011;1606;51.946;10.558;2023-04-15T14:35:40;41.83;;;23.20;;
3189;SDS011;1606;51.946;10.558;2023-04-15T14:38:08;50.87;;;26.03;;
3189;SDS011;1606;51.946;10.558;2023-04-15T14:40:39;43.60;;;25.17;;
3189;SDS011;1606;51.946;10.558;2023-04-15T14:43:07;43.77;;;25.37;;
3189;SDS011;1606;51.946;10.558;2023-04-15T14:45:36;47.83;;;27.13;;
3189;SDS011;1606;51.946;10.558;2023-04-15T14:48:08;51.87;;;27.50;;
3189;SDS011;1606;51.946;10.558;2023-04-15T14:50:37;46.20;;;27.23;;
3189;SDS011;1606;51.946;10.558;2023-04-15T14:53:06;44.20;;;25.57;;
3189;SDS011;1606;51.946;10.558;2023-04-15T14:55:33;43.53;;;25.60;;
3189;SDS011;1606;51.946;10.558;2023-04-15T14:58:02;54.05;;;33.53;;
3189;SDS011;1606;51.946;10.558;2023-04-15T15:00:31;49.57;;;29.37;;
3189;SDS011;1606;51.946;10.558;2023-04-15T15:02:58;56.03;;;32.40;;